createdAt,value
2023-02-05T00:01:32.663Z,103811.34
2023-02-05T00:03:59.834Z,103813.16
2023-02-05T00:06:27.152Z,103812.13
2023-02-05T00:08:54.051Z,103829.63
2023-02-05T00:11:20.932Z,103831.25
2023-02-05T00:13:47.841Z,103839.09
2023-02-05T00:16:18.205Z,103835.66
2023-02-05T00:18:45.462Z,103828.84
2023-02-05T00:21:13.809Z,103813.44
2023-02-05T00:23:41.062Z,103815.25
2023-02-05T00:26:08.975Z,103797.28
2023-02-05T00:28:37.432Z,103797.44
2023-02-05T00:31:15.437Z,103793.97
2023-02-05T00:33:43.478Z,103797.59
2023-02-05T00:36:12.784Z,103778.91
2023-02-05T00:38:40.615Z,103791.41
2023-02-05T00:41:07.529Z,103793.97
2023-02-05T00:43:34.429Z,103788.69
2023-02-05T00:46:01.364Z,103784.16
2023-02-05T00:48:28.448Z,103780.28
2023-02-05T00:50:55.444Z,103781.47
2023-02-05T00:53:24.208Z,103766.56
2023-02-05T00:55:51.537Z,103773.06
2023-02-05T00:58:18.740Z,103767.81
2023-02-05T01:00:46.198Z,103781.22
2023-02-05T01:03:13.629Z,103773.56
2023-02-05T01:05:41.648Z,103769.19
2023-02-05T01:08:11.146Z,103763.91
2023-02-05T01:10:38.756Z,103756.72
2023-02-05T01:13:06.098Z,103750.72
2023-02-05T01:15:33.534Z,103749.19
2023-02-05T01:18:00.971Z,103746.03
2023-02-05T01:20:28.976Z,103747.44
2023-02-05T01:22:56.298Z,103745.19
2023-02-05T01:25:23.810Z,103748.84
2023-02-05T01:27:51.562Z,103737.25
2023-02-05T01:30:18.506Z,103739.66
2023-02-05T01:32:45.378Z,103739.97
2023-02-05T01:35:12.246Z,103751.00
2023-02-05T01:37:39.337Z,103750.72
2023-02-05T01:40:07.237Z,103743.47
2023-02-05T01:42:34.617Z,103725.38
2023-02-05T01:45:23.445Z,103721.78
2023-02-05T01:47:56.170Z,103719.97
2023-02-05T01:50:43.734Z,103721.34
2023-02-05T01:53:16.360Z,103693.47
2023-02-05T01:56:00.430Z,103696.63
2023-02-05T01:58:33.131Z,103689.72
2023-02-05T02:01:00.326Z,103685.16
2023-02-05T02:03:30.650Z,103679.00
2023-02-05T02:05:57.666Z,103683.09
2023-02-05T02:08:24.614Z,103676.75
2023-02-05T02:10:53.816Z,103671.22
2023-02-05T02:13:22.691Z,103660.81
2023-02-05T02:15:51.418Z,103671.50
2023-02-05T02:18:28.767Z,103670.44
2023-02-05T02:21:39.454Z,103676.03
2023-02-05T02:24:56.617Z,103675.72
2023-02-05T02:27:52.496Z,103683.13
2023-02-05T02:30:35.510Z,103686.59
2023-02-05T02:33:17.528Z,103685.69
2023-02-05T02:36:01.329Z,103683.13
2023-02-05T02:38:54.109Z,103689.03
2023-02-05T02:41:54.922Z,103686.47
2023-02-05T02:44:34.244Z,103684.78
2023-02-05T02:47:09.716Z,103677.13
2023-02-05T02:50:19.182Z,103674.38
2023-02-05T02:52:48.547Z,103674.38
2023-02-05T02:55:18.803Z,103663.88
2023-02-05T02:57:50.950Z,103663.88
2023-02-05T03:00:25.204Z,103652.72
2023-02-05T03:03:00.203Z,103656.91
2023-02-05T03:05:29.130Z,103655.28
2023-02-05T03:08:02.500Z,103653.63
2023-02-05T03:10:43.379Z,103654.22
2023-02-05T03:13:12.841Z,103655.28
2023-02-05T03:15:45.779Z,103659.78
2023-02-05T03:18:15.328Z,103653.00
2023-02-05T03:21:05.835Z,103633.88
2023-02-05T03:23:32.836Z,103638.69
2023-02-05T03:25:59.799Z,103639.44
2023-02-05T03:28:37.504Z,103649.84
2023-02-05T03:31:20.651Z,103658.41
2023-02-05T03:34:23.485Z,103661.75
2023-02-05T03:37:28.834Z,103668.66
2023-02-05T03:40:31.252Z,103671.22
2023-02-05T03:43:15.562Z,103667.59
2023-02-05T03:46:18.396Z,103667.00
2023-02-05T03:49:17.456Z,103676.50
2023-02-05T03:51:59.468Z,103669.88
2023-02-05T03:54:37.985Z,103678.75
2023-02-05T03:57:36.063Z,103686.59
2023-02-05T04:00:05.339Z,103677.22
2023-02-05T04:02:41.989Z,103679.03
2023-02-05T04:05:12.573Z,103679.19
2023-02-05T04:07:41.858Z,103673.44
2023-02-05T04:10:10.817Z,103669.22
2023-02-05T04:12:38.969Z,103655.81
2023-02-05T04:15:09.004Z,103649.16
2023-02-05T04:17:39.170Z,103639.03
2023-02-05T04:20:07.973Z,103635.16
2023-02-05T04:22:35.012Z,103652.91
2023-02-05T04:25:01.903Z,103655.63
2023-02-05T04:27:29.374Z,103649.72
2023-02-05T04:29:58.663Z,103655.63
2023-02-05T04:32:26.663Z,103657.56
2023-02-05T04:34:53.980Z,103661.81
2023-02-05T04:37:20.911Z,103667.53
2023-02-05T04:39:47.924Z,103669.94
2023-02-05T04:42:14.858Z,103662.09
2023-02-05T04:44:41.750Z,103655.34
2023-02-05T04:47:08.718Z,103653.69
2023-02-05T04:49:35.808Z,103646.88
2023-02-05T04:52:02.767Z,103635.75
2023-02-05T04:54:29.856Z,103622.22
2023-02-05T04:56:56.757Z,103640.88
2023-02-05T04:59:23.702Z,103644.31
2023-02-05T05:01:50.571Z,103643.59
2023-02-05T05:04:17.444Z,103654.72
2023-02-05T05:06:44.327Z,103659.97
2023-02-05T05:09:11.195Z,103659.25
2023-02-05T05:11:38.085Z,103661.03
2023-02-05T05:14:04.966Z,103655.00
2023-02-05T05:16:31.886Z,103655.16
2023-02-05T05:18:58.864Z,103650.16
2023-02-05T05:21:25.844Z,103655.56
2023-02-05T05:23:52.721Z,103647.31
2023-02-05T05:26:19.625Z,103660.84
2023-02-05T05:28:46.532Z,103664.47
2023-02-05T05:31:17.260Z,103668.69
2023-02-05T05:33:44.176Z,103667.16
2023-02-05T05:36:11.078Z,103662.19
2023-02-05T05:38:38.022Z,103656.28
2023-02-05T05:41:24.359Z,103650.00
2023-02-05T05:43:54.831Z,103652.09
2023-02-05T05:46:25.543Z,103638.06
2023-02-05T05:48:58.364Z,103631.28
2023-02-05T05:51:26.804Z,103636.84
2023-02-05T05:53:54.022Z,103639.41
2023-02-05T05:56:22.012Z,103637.75
2023-02-05T05:58:49.677Z,103640.28
2023-02-05T06:01:20.527Z,103637.75
2023-02-05T06:03:47.425Z,103648.31
2023-02-05T06:06:14.350Z,103653.44
2023-02-05T06:08:41.244Z,103654.31
2023-02-05T06:11:08.139Z,103654.47
2023-02-05T06:13:35.069Z,103651.16
2023-02-05T06:16:02.362Z,103648.56
2023-02-05T06:18:30.029Z,103646.16
2023-02-05T06:20:56.922Z,103643.72
2023-02-05T06:23:23.961Z,103654.13
2023-02-05T06:25:50.954Z,103657.59
2023-02-05T06:28:17.873Z,103667.84
2023-02-05T06:30:44.783Z,103672.38
2023-02-05T06:33:12.778Z,103669.97
2023-02-05T06:35:41.234Z,103667.50
2023-02-05T06:38:08.914Z,103663.28
2023-02-05T06:40:35.898Z,103644.63
2023-02-05T06:43:03.081Z,103670.34
2023-02-05T06:45:30.021Z,103659.09
2023-02-05T06:47:57.622Z,103657.13
2023-02-05T06:50:25.432Z,103661.44
2023-02-05T06:52:52.698Z,103644.09
2023-02-05T06:55:19.687Z,103642.75
2023-02-05T06:57:46.670Z,103647.09
2023-02-05T07:00:14.616Z,103646.47
2023-02-05T07:02:41.544Z,103645.16
2023-02-05T07:05:08.727Z,103638.31
2023-02-05T07:07:35.882Z,103635.47
2023-02-05T07:10:04.275Z,103648.09
2023-02-05T07:12:31.172Z,103637.06
2023-02-05T07:14:58.075Z,103618.69
2023-02-05T07:17:25.211Z,103614.78
2023-02-05T07:19:52.080Z,103605.69
2023-02-05T07:22:18.994Z,103607.47
2023-02-05T07:24:45.875Z,103597.22
2023-02-05T07:27:12.766Z,103600.53
2023-02-05T07:29:39.672Z,103608.50
2023-02-05T07:32:06.581Z,103607.47
2023-02-05T07:34:33.486Z,103612.91
2023-02-05T07:37:00.361Z,103617.88
2023-02-05T07:39:28.226Z,103622.59
2023-02-05T07:41:55.154Z,103621.22
2023-02-05T07:44:30.347Z,103640.19
2023-02-05T07:46:57.309Z,103635.97
2023-02-05T07:49:24.390Z,103638.56
2023-02-05T07:51:51.404Z,103645.31
2023-02-05T07:54:18.291Z,103632.38
2023-02-05T07:56:45.227Z,103641.44
2023-02-05T07:59:12.215Z,103636.59
2023-02-05T08:01:39.172Z,103636.88
2023-02-05T08:04:06.170Z,103623.16
2023-02-05T08:06:34.380Z,103633.41
2023-02-05T08:09:01.432Z,103638.19
2023-02-05T08:11:28.366Z,103626.41
2023-02-05T08:13:55.273Z,103631.81
2023-02-05T08:16:22.285Z,103635.44
2023-02-05T08:18:50.592Z,103631.34
2023-02-05T08:21:18.730Z,103633.16
2023-02-05T08:23:45.606Z,103644.44
2023-02-05T08:26:14.869Z,103629.47
2023-02-05T08:28:42.749Z,103626.91
2023-02-05T08:31:16.110Z,103634.69
2023-02-05T08:33:43.450Z,103630.09
2023-02-05T08:36:11.197Z,103628.09
2023-02-05T08:38:38.111Z,103618.50
2023-02-05T08:41:14.445Z,103616.72
2023-02-05T08:43:48.079Z,103625.25
2023-02-05T08:46:20.459Z,103624.13
2023-02-05T08:48:48.617Z,103634.31
2023-02-05T08:51:17.066Z,103624.59
2023-02-05T08:53:43.946Z,103630.88
2023-02-05T08:56:12.522Z,103620.22
2023-02-05T08:58:40.285Z,103625.16
2023-02-05T09:01:12.211Z,103630.84
2023-02-05T09:03:39.122Z,103633.03
2023-02-05T09:06:16.177Z,103637.63
2023-02-05T09:08:43.367Z,103632.41
2023-02-05T09:11:10.758Z,103632.81
2023-02-05T09:13:38.016Z,103630.09
2023-02-05T09:16:05.242Z,103622.53
2023-02-05T09:18:34.897Z,103613.53
2023-02-05T09:21:07.695Z,103619.34
2023-02-05T09:23:34.619Z,103623.19
2023-02-05T09:26:01.806Z,103613.03
2023-02-05T09:28:28.750Z,103613.06
2023-02-05T09:30:55.733Z,103610.19
2023-02-05T09:33:22.702Z,103595.41
2023-02-05T09:35:49.616Z,103594.50
2023-02-05T09:38:18.186Z,103598.63
2023-02-05T09:40:59.957Z,103600.41
2023-02-05T09:43:48.637Z,103595.25
2023-02-05T09:46:38.682Z,103599.47
2023-02-05T09:49:22.353Z,103608.84
2023-02-05T09:51:59.734Z,103602.53
2023-02-05T09:54:33.702Z,103604.78
2023-02-05T09:57:06.971Z,103611.34
2023-02-05T09:59:34.894Z,103602.06
2023-02-05T10:02:19.021Z,103601.13
2023-02-05T10:04:45.908Z,103593.66
2023-02-05T10:08:05.305Z,103599.34
2023-02-05T10:10:44.256Z,103600.34
2023-02-05T10:13:35.998Z,103602.25
2023-02-05T10:16:33.438Z,103582.84
2023-02-05T10:19:47.556Z,103596.94
2023-02-05T10:22:28.367Z,103596.53
2023-02-05T10:25:31.345Z,103588.25
2023-02-05T10:28:41.776Z,103593.78
2023-02-05T10:31:30.022Z,103587.69
2023-02-05T10:34:16.390Z,103572.81
2023-02-05T10:36:48.056Z,103580.47
2023-02-05T10:39:21.471Z,103583.28
2023-02-05T10:42:03.165Z,103577.59
2023-02-05T10:44:35.530Z,103573.78
2023-02-05T10:47:44.821Z,103554.91
2023-02-05T10:50:32.476Z,103585.25
2023-02-05T10:52:59.616Z,103568.75
2023-02-05T10:55:26.560Z,103573.13
2023-02-05T10:57:53.997Z,103562.94
2023-02-05T11:00:22.865Z,103552.84
2023-02-05T11:02:58.620Z,103556.81
2023-02-05T11:05:41.256Z,103552.53
2023-02-05T11:08:37.913Z,103549.97
2023-02-05T11:11:06.482Z,103549.06
2023-02-05T11:13:39.983Z,103547.25
2023-02-05T11:16:09.002Z,103545.34
2023-02-05T11:18:41.260Z,103544.56
2023-02-05T11:21:10.048Z,103549.59
2023-02-05T11:23:39.980Z,103554.59
2023-02-05T11:26:23.060Z,103540.09
2023-02-05T11:28:50.148Z,103531.59
2023-02-05T11:31:36.494Z,103549.88
2023-02-05T11:34:11.656Z,103544.38
2023-02-05T11:36:48.682Z,103536.75
2023-02-05T11:39:39.544Z,103551.91
2023-02-05T11:42:11.458Z,103557.53
2023-02-05T11:44:53.624Z,103557.88
2023-02-05T11:47:30.663Z,103555.66
2023-02-05T11:49:59.238Z,103560.38
2023-02-05T11:52:34.625Z,103560.91
2023-02-05T11:55:01.750Z,103567.44
2023-02-05T11:57:39.307Z,103568.91
2023-02-05T12:00:09.209Z,103570.13
2023-02-05T12:02:38.593Z,103555.31
2023-02-05T12:05:36.030Z,103554.56
2023-02-05T12:08:26.914Z,103566.69
2023-02-05T12:11:28.045Z,103566.13
2023-02-05T12:14:13.057Z,103576.78
2023-02-05T12:17:02.842Z,103576.56
2023-02-05T12:19:51.384Z,103581.53
2023-02-05T12:22:36.354Z,103587.00
2023-02-05T12:25:24.368Z,103595.00
2023-02-05T12:28:40.696Z,103593.53
2023-02-05T12:31:45.153Z,103599.72
2023-02-05T12:34:58.012Z,103595.66
2023-02-05T12:37:55.135Z,103597.81
2023-02-05T12:40:40.462Z,103611.03
2023-02-05T12:43:27.531Z,103607.91
2023-02-05T12:45:57.435Z,103608.78
2023-02-05T12:48:51.472Z,103610.59
2023-02-05T12:51:33.231Z,103599.25
2023-02-05T12:54:38.404Z,103596.09
2023-02-05T12:57:11.847Z,103591.16
2023-02-05T12:59:57.449Z,103597.56
2023-02-05T13:03:08.902Z,103616.75
2023-02-05T13:06:09.141Z,103621.16
2023-02-05T13:08:54.488Z,103616.88
2023-02-05T13:11:40.124Z,103610.91
2023-02-05T13:14:17.997Z,103603.28
2023-02-05T13:16:57.012Z,103597.91
2023-02-05T13:19:41.945Z,103597.31
2023-02-05T13:22:44.923Z,103587.84
2023-02-05T13:25:53.502Z,103590.44
2023-02-05T13:28:54.972Z,103597.91
2023-02-05T13:31:40.163Z,103587.31
2023-02-05T13:34:09.707Z,103584.63
2023-02-05T13:37:17.038Z,103577.56
2023-02-05T13:40:13.016Z,103568.78
2023-02-05T13:43:33.425Z,103559.91
2023-02-05T13:46:27.853Z,103542.28
2023-02-05T13:48:57.286Z,103549.56
2023-02-05T13:52:08.400Z,103538.13
2023-02-05T13:55:07.862Z,103537.94
2023-02-05T13:58:12.777Z,103540.03
2023-02-05T14:00:43.656Z,103545.00
2023-02-05T14:03:27.465Z,103538.81
2023-02-05T14:05:54.512Z,103538.50
2023-02-05T14:08:26.382Z,103534.78
2023-02-05T14:11:00.973Z,103542.31
2023-02-05T14:13:34.368Z,103539.94
2023-02-05T14:16:26.150Z,103550.41
2023-02-05T14:19:01.937Z,103541.56
2023-02-05T14:21:31.741Z,103529.31
2023-02-05T14:24:05.095Z,103522.78
2023-02-05T14:26:51.284Z,103533.56
2023-02-05T14:29:45.232Z,103535.81
2023-02-05T14:32:27.246Z,103542.19
2023-02-05T14:35:02.726Z,103535.78
2023-02-05T14:37:40.130Z,103534.69
2023-02-05T14:40:31.098Z,103519.75
2023-02-05T14:43:17.705Z,103528.50
2023-02-05T14:45:50.453Z,103536.13
2023-02-05T14:48:29.309Z,103550.50
2023-02-05T14:51:15.957Z,103549.25
2023-02-05T14:53:58.068Z,103557.44
2023-02-05T14:56:43.814Z,103545.88
2023-02-05T14:59:38.372Z,103521.59
2023-02-05T15:02:48.241Z,103548.63
2023-02-05T15:05:50.195Z,103545.59
2023-02-05T15:08:35.125Z,103550.28
2023-02-05T15:11:27.313Z,103555.34
2023-02-05T15:14:22.475Z,103560.34
2023-02-05T15:17:14.509Z,103573.13
2023-02-05T15:19:54.707Z,103581.66
2023-02-05T15:22:38.151Z,103576.50
2023-02-05T15:25:18.512Z,103576.38
2023-02-05T15:27:57.819Z,103570.19
2023-02-05T15:30:30.686Z,103576.63
2023-02-05T15:33:17.686Z,103581.66
2023-02-05T15:35:45.386Z,103579.97
2023-02-05T15:38:33.905Z,103578.94
2023-02-05T15:41:06.774Z,103577.91
2023-02-05T15:43:33.733Z,103563.31
2023-02-05T15:46:08.213Z,103574.88
2023-02-05T15:48:37.618Z,103580.69
2023-02-05T15:51:29.689Z,103569.13
2023-02-05T15:53:59.268Z,103586.06
2023-02-05T15:56:35.414Z,103591.50
2023-02-05T15:59:13.576Z,103602.47
2023-02-05T16:01:48.520Z,103603.00
2023-02-05T16:04:35.394Z,103586.94
2023-02-05T16:07:03.738Z,103592.09
2023-02-05T16:09:34.704Z,103585.66
2023-02-05T16:12:12.530Z,103586.97
2023-02-05T16:14:39.443Z,103592.63
2023-02-05T16:17:18.250Z,103602.56
2023-02-05T16:19:59.862Z,103596.94
2023-02-05T16:22:37.989Z,103588.84
2023-02-05T16:25:19.124Z,103607.03
2023-02-05T16:27:49.739Z,103616.94
2023-02-05T16:30:27.741Z,103614.88
2023-02-05T16:32:56.960Z,103629.06
2023-02-05T16:35:29.654Z,103625.72
2023-02-05T16:37:57.211Z,103631.00
2023-02-05T16:40:37.378Z,103631.41
2023-02-05T16:43:31.932Z,103632.56
2023-02-05T16:46:07.951Z,103631.44
2023-02-05T16:48:45.154Z,103626.78
2023-02-05T16:51:33.264Z,103635.81
2023-02-05T16:54:01.983Z,103620.75
2023-02-05T16:56:35.928Z,103624.72
2023-02-05T16:59:04.899Z,103622.06
2023-02-05T17:01:43.096Z,103631.69
2023-02-05T17:04:29.595Z,103642.25
2023-02-05T17:06:59.746Z,103642.88
2023-02-05T17:09:35.534Z,103651.25
2023-02-05T17:12:33.307Z,103650.06
2023-02-05T17:15:03.816Z,103639.41
2023-02-05T17:17:32.267Z,103636.56
2023-02-05T17:20:27.070Z,103647.25
2023-02-05T17:23:03.183Z,103638.88
2023-02-05T17:26:01.650Z,103637.34
2023-02-05T17:28:29.828Z,103631.81
2023-02-05T17:31:01.873Z,103645.69
2023-02-05T17:33:30.096Z,103652.38
2023-02-05T17:35:57.049Z,103665.88
2023-02-05T17:38:23.934Z,103670.75
2023-02-05T17:41:11.223Z,103675.63
2023-02-05T17:43:39.180Z,103672.66
2023-02-05T17:46:14.610Z,103676.63
2023-02-05T17:48:41.649Z,103672.00
2023-02-05T17:51:19.737Z,103667.63
2023-02-05T17:53:48.142Z,103667.34
2023-02-05T17:56:15.272Z,103658.59
2023-02-05T17:58:42.265Z,103657.56
2023-02-05T18:01:11.778Z,103637.63
2023-02-05T18:03:39.402Z,103649.34
2023-02-05T18:06:06.502Z,103649.06
2023-02-05T18:08:36.112Z,103654.97
2023-02-05T18:11:03.688Z,103673.72
2023-02-05T18:13:30.569Z,103670.38
2023-02-05T18:16:01.575Z,103682.22
2023-02-05T18:18:30.790Z,103683.75
2023-02-05T18:20:58.689Z,103692.09
2023-02-05T18:23:29.112Z,103690.00
2023-02-05T18:25:57.859Z,103689.38
2023-02-05T18:28:25.572Z,103683.81
2023-02-05T18:31:02.697Z,103677.78
2023-02-05T18:33:29.778Z,103683.16
2023-02-05T18:36:07.167Z,103699.75
2023-02-05T18:38:35.811Z,103695.88
2023-02-05T18:41:16.329Z,103683.66
2023-02-05T18:43:44.036Z,103681.72
2023-02-05T18:46:15.208Z,103677.06
2023-02-05T18:48:45.551Z,103675.88
2023-02-05T18:51:15.941Z,103678.81
2023-02-05T18:53:44.381Z,103688.66
2023-02-05T18:56:22.856Z,103685.72
2023-02-05T18:58:59.234Z,103686.19
2023-02-05T19:01:26.726Z,103694.53
2023-02-05T19:03:54.622Z,103689.59
2023-02-05T19:06:21.952Z,103688.06
2023-02-05T19:08:49.741Z,103686.88
2023-02-05T19:11:23.992Z,103689.19
2023-02-05T19:14:04.413Z,103701.59
2023-02-05T19:16:32.983Z,103684.25
2023-02-05T19:19:00.334Z,103701.19
2023-02-05T19:21:29.332Z,103705.28
2023-02-05T19:23:58.537Z,103700.78
2023-02-05T19:26:28.377Z,103696.38
2023-02-05T19:29:03.022Z,103699.56
2023-02-05T19:31:32.839Z,103707.16
2023-02-05T19:34:00.814Z,103700.09
2023-02-05T19:36:29.026Z,103696.31
2023-02-05T19:38:56.237Z,103686.56
2023-02-05T19:41:26.314Z,103684.88
2023-02-05T19:43:56.552Z,103685.63
2023-02-05T19:46:28.691Z,103682.03
2023-02-05T19:49:00.275Z,103676.94
2023-02-05T19:51:27.431Z,103692.78
2023-02-05T19:53:57.725Z,103699.69
2023-02-05T19:56:25.798Z,103701.38
2023-02-05T19:58:55.100Z,103710.88
2023-02-05T20:01:29.447Z,103716.91
2023-02-05T20:03:59.808Z,103720.38
2023-02-05T20:06:29.212Z,103721.25
2023-02-05T20:08:56.781Z,103724.59
2023-02-05T20:11:23.702Z,103719.19
2023-02-05T20:13:50.604Z,103723.56
2023-02-05T20:16:20.903Z,103734.59
2023-02-05T20:18:54.189Z,103728.25
2023-02-05T20:21:21.734Z,103729.78
2023-02-05T20:23:49.322Z,103721.78
2023-02-05T20:26:22.076Z,103732.84
2023-02-05T20:29:12.500Z,103735.25
2023-02-05T20:31:48.056Z,103744.78
2023-02-05T20:34:18.610Z,103724.44
2023-02-05T20:36:49.882Z,103751.59
2023-02-05T20:39:18.162Z,103752.63
2023-02-05T20:41:50.723Z,103766.97
2023-02-05T20:44:18.638Z,103746.03
2023-02-05T20:46:45.884Z,103757.47
2023-02-05T20:49:14.245Z,103764.41
2023-02-05T20:51:42.232Z,103748.13
2023-02-05T20:54:09.633Z,103720.00
2023-02-05T20:56:36.752Z,103746.31
2023-02-05T20:59:07.284Z,103752.19
2023-02-05T21:01:36.819Z,103746.91
2023-02-05T21:04:06.346Z,103735.75
2023-02-05T21:06:37.309Z,103734.88
2023-02-05T21:09:05.944Z,103721.47
2023-02-05T21:11:33.466Z,103731.25
2023-02-05T21:14:00.350Z,103725.97
2023-02-05T21:16:28.495Z,103729.59
2023-02-05T21:18:55.700Z,103731.25
2023-02-05T21:21:29.467Z,103727.91
2023-02-05T21:24:02.209Z,103716.19
2023-02-05T21:26:41.580Z,103711.50
2023-02-05T21:29:20.346Z,103710.72
2023-02-05T21:31:50.591Z,103700.31
2023-02-05T21:34:23.017Z,103707.56
2023-02-05T21:36:50.806Z,103710.28
2023-02-05T21:39:21.385Z,103705.16
2023-02-05T21:41:50.560Z,103706.47
2023-02-05T21:44:17.807Z,103706.59
2023-02-05T21:46:44.735Z,103705.97
2023-02-05T21:49:12.245Z,103700.84
2023-02-05T21:51:39.863Z,103710.38
2023-02-05T21:54:06.842Z,103718.97
2023-02-05T21:56:40.888Z,103718.06
2023-02-05T21:59:09.159Z,103712.00
2023-02-05T22:01:36.719Z,103712.78
2023-02-05T22:04:15.061Z,103717.91
2023-02-05T22:06:42.917Z,103709.16
2023-02-05T22:09:13.316Z,103708.88
2023-02-05T22:11:40.658Z,103709.16
2023-02-05T22:14:08.228Z,103705.44
2023-02-05T22:16:36.567Z,103711.59
2023-02-05T22:19:04.830Z,103704.38
2023-02-05T22:21:36.054Z,103710.91
2023-02-05T22:24:05.196Z,103712.53
2023-02-05T22:26:36.113Z,103723.56
2023-02-05T22:29:06.326Z,103722.78
2023-02-05T22:31:33.621Z,103721.00
2023-02-05T22:34:00.749Z,103715.88
2023-02-05T22:36:30.872Z,103724.44
2023-02-05T22:38:58.277Z,103691.31
2023-02-05T22:41:35.298Z,103701.25
2023-02-05T22:44:04.298Z,103702.16
2023-02-05T22:46:34.381Z,103703.81
2023-02-05T22:49:03.382Z,103692.50
2023-02-05T22:51:37.361Z,103692.50
2023-02-05T22:54:05.453Z,103697.91
2023-02-05T22:56:33.325Z,103687.81
2023-02-05T22:59:02.795Z,103683.84
2023-02-05T23:01:33.615Z,103690.31
2023-02-05T23:04:02.869Z,103696.78
2023-02-05T23:06:36.489Z,103693.84
2023-02-05T23:09:16.720Z,103685.84
2023-02-05T23:11:44.546Z,103686.25
2023-02-05T23:14:14.092Z,103678.06
2023-02-05T23:16:46.443Z,103677.59
2023-02-05T23:19:19.838Z,103690.09
2023-02-05T23:21:47.766Z,103672.53
2023-02-05T23:24:15.930Z,103678.38
2023-02-05T23:26:47.938Z,103669.16
2023-02-05T23:29:16.289Z,103667.28
2023-02-05T23:31:43.699Z,103664.97
2023-02-05T23:34:10.821Z,103676.72
2023-02-05T23:36:38.107Z,103678.03
2023-02-05T23:39:05.111Z,103668.22
2023-02-05T23:41:39.729Z,103674.47
2023-02-05T23:44:17.838Z,103668.69
2023-02-05T23:46:47.157Z,103663.66
2023-02-05T23:49:14.680Z,103656.91
2023-02-05T23:51:41.752Z,103659.59
2023-02-05T23:54:10.792Z,103666.03
2023-02-05T23:56:37.909Z,103669.00
2023-02-05T23:59:06.216Z,103678.53
